KDWH/DWH METAR and TAF weather

Enter ICAO airport designator
Station Type Date Time Source
KDWH METAR 2021/01/16 02:53 UTC NOAA

KDWH 160253Z AUTO 29003KT 10SM CLR 08/M08 A3009 RMK AO2 SLP190 T00781078 51017


Station Type Date Time Source
KDWH Decoded METAR 2021/01/16 02:53 UTC NOAA

HOUSTON HOOKS MEMORIAL, TX, United States (KDWH) 30-04N 95-33W 46M
Jan 15, 2021 - 09:53 PM EST / 2021.01.16 0253 UTC
Wind: from the WNW (290 degrees) at 3 MPH (3 KT):0
Visibility: 10 mile(s):0
Sky conditions: clear
Temperature: 46.0 F (7.8 C)
Dew Point: 18.0 F (-7.8 C)
Relative Humidity: 32%
Pressure (altimeter): 30.09 in. Hg (1018 hPa)
Pressure tendency: 0.05 inches (1.7 hPa) higher than three hours ago
ob: KDWH 160253Z AUTO 29003KT 10SM CLR 08/M08 A3009 RMK AO2 SLP190 T00781078 51017
cycle: 3

Station Type Date Time Source
KDWH TAF 2017/02/07 15:09 UTC NOAA

TAF
AMD KDWH 071507Z 0715/0812 23010KT P6SM BKN015
TEMPO 0715/0719 SCT015
FM071900 25010KT P6SM SCT025
FM080100 22005KT P6SM SCT250
TEMPO 0807/0809 3SM BR BKN013
FM080900 VRB03KT 2SM BR OVC008

Example: see airport list